createdAt,value
2024-03-02T00:00:52.359Z,99657.47
2024-03-02T00:03:21.121Z,99656.25
2024-03-02T00:05:52.669Z,99646.66
2024-03-02T00:08:26.451Z,99649.50
2024-03-02T00:10:53.798Z,99641.44
2024-03-02T00:13:21.525Z,99649.03
2024-03-02T00:15:49.528Z,99647.34
2024-03-02T00:18:21.351Z,99650.22
2024-03-02T00:20:48.157Z,99652.69
2024-03-02T00:23:16.481Z,99647.00
2024-03-02T00:25:44.969Z,99655.31
2024-03-02T00:28:22.117Z,99660.28
2024-03-02T00:31:07.019Z,99681.72
2024-03-02T00:33:35.906Z,99701.00
2024-03-02T00:36:04.251Z,99729.41
2024-03-02T00:38:31.596Z,99733.56
2024-03-02T00:40:59.228Z,99739.66
2024-03-02T00:43:47.905Z,99747.50
2024-03-02T00:46:18.484Z,99758.41
2024-03-02T00:48:57.184Z,99756.19
2024-03-02T00:51:25.450Z,99752.34
2024-03-02T00:53:53.602Z,99767.25
2024-03-02T00:56:20.445Z,99767.47
2024-03-02T00:58:47.102Z,99770.44
2024-03-02T01:01:13.811Z,99769.41
2024-03-02T01:03:40.760Z,99774.47
2024-03-02T01:06:08.807Z,99780.38
2024-03-02T01:08:35.578Z,99775.97
2024-03-02T01:11:02.268Z,99772.22
2024-03-02T01:13:28.955Z,99793.00
2024-03-02T01:15:55.743Z,99793.88
2024-03-02T01:18:23.315Z,99786.59
2024-03-02T01:20:52.535Z,99800.44
2024-03-02T01:23:20.860Z,99790.81
2024-03-02T01:25:48.176Z,99796.38
2024-03-02T01:28:14.956Z,99785.38
2024-03-02T01:30:41.729Z,99780.44
2024-03-02T01:33:08.437Z,99778.63
2024-03-02T01:35:35.925Z,99776.84
2024-03-02T01:38:02.512Z,99777.06
2024-03-02T01:40:30.438Z,99782.16
2024-03-02T01:42:59.066Z,99789.44
2024-03-02T01:45:25.728Z,99770.13
2024-03-02T01:47:52.640Z,99778.91
2024-03-02T01:50:26.489Z,99784.56
2024-03-02T01:52:53.198Z,99790.34
2024-03-02T01:55:19.765Z,99781.03
2024-03-02T01:57:48.923Z,99786.47
2024-03-02T02:00:16.467Z,99784.56
2024-03-02T02:02:43.133Z,99779.91
2024-03-02T02:05:10.148Z,99777.06
2024-03-02T02:07:36.884Z,99785.81
2024-03-02T02:10:03.813Z,99782.28
2024-03-02T02:12:30.497Z,99781.66
2024-03-02T02:14:58.595Z,99786.19
2024-03-02T02:17:25.289Z,99784.56
2024-03-02T02:19:51.860Z,99781.19
2024-03-02T02:22:19.772Z,99778.47
2024-03-02T02:24:46.460Z,99774.56
2024-03-02T02:27:16.165Z,99776.25
2024-03-02T02:29:43.293Z,99767.44
2024-03-02T02:32:09.935Z,99771.94
2024-03-02T02:34:36.556Z,99762.03
2024-03-02T02:37:03.144Z,99758.00
2024-03-02T02:39:31.194Z,99760.00
2024-03-02T02:41:57.848Z,99757.59
2024-03-02T02:44:24.476Z,99759.41
2024-03-02T02:46:50.983Z,99761.69
2024-03-02T02:49:18.189Z,99766.03
2024-03-02T02:51:44.821Z,99757.94
2024-03-02T02:54:11.532Z,99754.19
2024-03-02T02:56:39.475Z,99751.56
2024-03-02T02:59:06.164Z,99752.59
2024-03-02T03:01:32.843Z,99763.97
2024-03-02T03:03:59.608Z,99773.53
2024-03-02T03:06:26.230Z,99770.22
2024-03-02T03:08:52.759Z,99778.34
2024-03-02T03:11:19.515Z,99765.00
2024-03-02T03:13:47.531Z,99767.81
2024-03-02T03:16:14.169Z,99782.44
2024-03-02T03:18:40.874Z,99777.00
2024-03-02T03:21:07.439Z,99785.03
2024-03-02T03:23:34.069Z,99782.97
2024-03-02T03:26:00.719Z,99772.44
2024-03-02T03:28:27.358Z,99775.31
2024-03-02T03:30:55.296Z,99794.94
2024-03-02T03:33:21.968Z,99778.25
2024-03-02T03:35:49.229Z,99783.06
2024-03-02T03:38:15.798Z,99766.91
2024-03-02T03:40:42.466Z,99766.91
2024-03-02T03:43:09.628Z,99760.75
2024-03-02T03:45:36.218Z,99769.63
2024-03-02T03:48:04.434Z,99764.47
2024-03-02T03:50:31.046Z,99766.16
2024-03-02T03:52:57.630Z,99773.97
2024-03-02T03:55:24.159Z,99782.75
2024-03-02T03:57:50.817Z,99794.94
2024-03-02T04:00:17.794Z,99782.53
2024-03-02T04:02:44.397Z,99772.44
2024-03-02T04:05:12.855Z,99784.94
2024-03-02T04:07:41.105Z,99792.47
2024-03-02T04:10:09.184Z,99789.72
2024-03-02T04:12:37.731Z,99790.16
2024-03-02T04:15:07.181Z,99795.59
2024-03-02T04:17:35.008Z,99784.81
2024-03-02T04:20:01.833Z,99786.69
2024-03-02T04:22:29.893Z,99781.47
2024-03-02T04:24:56.957Z,99777.31
2024-03-02T04:27:23.700Z,99768.38
2024-03-02T04:29:50.770Z,99774.28
2024-03-02T04:32:17.563Z,99772.94
2024-03-02T04:34:44.353Z,99760.00
2024-03-02T04:37:13.735Z,99777.28
2024-03-02T04:39:41.765Z,99781.25
2024-03-02T04:42:08.350Z,99785.44
2024-03-02T04:44:34.894Z,99777.00
2024-03-02T04:47:01.534Z,99788.69
2024-03-02T04:49:28.290Z,99782.31
2024-03-02T04:51:55.030Z,99786.31
2024-03-02T04:54:21.691Z,99784.75
2024-03-02T04:56:52.515Z,99777.31
2024-03-02T04:59:19.332Z,99784.31
2024-03-02T05:01:46.764Z,99789.63
2024-03-02T05:04:13.279Z,99788.69
2024-03-02T05:06:42.839Z,99788.78
2024-03-02T05:09:09.515Z,99797.16
2024-03-02T05:11:39.150Z,99795.88
2024-03-02T05:14:07.798Z,99795.78
2024-03-02T05:16:35.107Z,99804.13
2024-03-02T05:19:01.755Z,99810.09
2024-03-02T05:21:28.418Z,99810.78
2024-03-02T05:23:55.040Z,99807.78
2024-03-02T05:26:21.647Z,99818.31
2024-03-02T05:28:48.373Z,99813.81
2024-03-02T05:31:17.612Z,99818.31
2024-03-02T05:33:44.303Z,99821.03
2024-03-02T05:36:10.994Z,99816.94
2024-03-02T05:38:37.702Z,99818.41
2024-03-02T05:41:04.610Z,99823.84
2024-03-02T05:43:31.125Z,99825.06
2024-03-02T05:45:57.766Z,99826.25
2024-03-02T05:48:25.744Z,99823.00
2024-03-02T05:50:52.308Z,99826.50
2024-03-02T05:53:18.893Z,99832.16
2024-03-02T05:55:46.458Z,99832.56
2024-03-02T05:58:27.036Z,99830.72
2024-03-02T06:00:55.706Z,99838.00
2024-03-02T06:03:22.411Z,99835.44
2024-03-02T06:05:50.481Z,99836.63
2024-03-02T06:08:17.115Z,99833.81
2024-03-02T06:10:44.326Z,99840.75
2024-03-02T06:13:10.916Z,99840.56
2024-03-02T06:15:37.628Z,99840.34
2024-03-02T06:18:04.858Z,99846.38
2024-03-02T06:20:35.216Z,99850.16
2024-03-02T06:23:05.027Z,99842.44
2024-03-02T06:25:31.722Z,99847.00
2024-03-02T06:27:58.343Z,99839.63
2024-03-02T06:30:25.020Z,99840.56
2024-03-02T06:32:51.697Z,99855.63
2024-03-02T06:35:18.342Z,99858.31
2024-03-02T06:37:44.992Z,99858.28
2024-03-02T06:40:13.075Z,99864.31
2024-03-02T06:42:39.669Z,99867.38
2024-03-02T06:45:07.302Z,99881.47
2024-03-02T06:47:33.954Z,99876.25
2024-03-02T06:50:00.833Z,99878.16
2024-03-02T06:52:27.762Z,99873.75
2024-03-02T06:54:54.406Z,99868.09
2024-03-02T06:57:22.648Z,99872.53
2024-03-02T06:59:51.894Z,99874.75
2024-03-02T07:02:18.541Z,99882.47
2024-03-02T07:04:46.396Z,99883.84
2024-03-02T07:07:13.036Z,99893.44
2024-03-02T07:09:39.800Z,99888.16
2024-03-02T07:12:06.673Z,99886.81
2024-03-02T07:14:53.426Z,99880.09
2024-03-02T07:17:19.999Z,99880.19
2024-03-02T07:19:46.695Z,99885.81
2024-03-02T07:22:13.296Z,99896.56
2024-03-02T07:24:41.718Z,99889.47
2024-03-02T07:27:08.475Z,99888.09
2024-03-02T07:29:36.789Z,99884.38
2024-03-02T07:32:03.685Z,99892.38
2024-03-02T07:34:30.317Z,99894.34
2024-03-02T07:36:57.069Z,99892.88
2024-03-02T07:39:23.946Z,99905.41
2024-03-02T07:41:50.689Z,99889.63
2024-03-02T07:44:17.618Z,99899.56
2024-03-02T07:46:47.439Z,99900.75
2024-03-02T07:49:15.175Z,99897.44
2024-03-02T07:51:41.722Z,99900.06
2024-03-02T07:54:08.542Z,99899.94
2024-03-02T07:56:35.321Z,99900.06
2024-03-02T07:59:02.319Z,99899.97
2024-03-02T08:01:29.092Z,99901.84
2024-03-02T08:03:59.263Z,99898.97
2024-03-02T08:06:28.564Z,99903.09
2024-03-02T08:08:55.545Z,99897.91
2024-03-02T08:11:22.479Z,99897.34
2024-03-02T08:13:49.431Z,99904.13
2024-03-02T08:16:16.205Z,99904.56
2024-03-02T08:18:42.964Z,99910.91
2024-03-02T08:21:10.978Z,99911.25
2024-03-02T08:23:39.843Z,99900.16
2024-03-02T08:26:07.722Z,99901.22
2024-03-02T08:28:34.393Z,99897.22
2024-03-02T08:31:01.102Z,99886.09
2024-03-02T08:33:27.725Z,99901.06
2024-03-02T08:35:54.372Z,99898.91
2024-03-02T08:38:22.384Z,99893.59
2024-03-02T08:40:48.983Z,99893.34
2024-03-02T08:43:15.548Z,99891.84
2024-03-02T08:45:42.736Z,99893.84
2024-03-02T08:48:09.668Z,99896.41
2024-03-02T08:50:36.621Z,99905.44
2024-03-02T08:53:04.104Z,99899.97
2024-03-02T08:55:32.089Z,99885.41
2024-03-02T08:57:58.807Z,99901.38
2024-03-02T09:00:26.202Z,99896.97
2024-03-02T09:02:53.052Z,99906.53
2024-03-02T09:05:19.629Z,99911.38
2024-03-02T09:07:46.273Z,99909.25
2024-03-02T09:10:13.563Z,99913.28
2024-03-02T09:12:41.431Z,99911.47
2024-03-02T09:15:08.865Z,99914.19
2024-03-02T09:17:35.620Z,99912.69
2024-03-02T09:20:02.223Z,99913.84
2024-03-02T09:22:28.809Z,99904.34
2024-03-02T09:24:55.494Z,99915.66
2024-03-02T09:27:22.221Z,99910.28
2024-03-02T09:29:50.150Z,99909.25
2024-03-02T09:32:16.876Z,99907.22
2024-03-02T09:34:45.120Z,99910.94
2024-03-02T09:37:12.088Z,99907.56
2024-03-02T09:39:38.680Z,99907.66
2024-03-02T09:42:05.958Z,99914.00
2024-03-02T09:44:32.394Z,99906.88
2024-03-02T09:47:00.442Z,99904.75
2024-03-02T09:49:27.011Z,99904.09
2024-03-02T09:51:53.690Z,99896.09
2024-03-02T09:54:22.965Z,99890.53
2024-03-02T09:56:50.548Z,99895.50
2024-03-02T09:59:20.187Z,99896.41
2024-03-02T10:01:57.428Z,99898.41
2024-03-02T10:04:26.668Z,99898.03
2024-03-02T10:06:53.773Z,99889.06
2024-03-02T10:09:28.247Z,99892.03
2024-03-02T10:11:54.837Z,99892.94
2024-03-02T10:14:23.383Z,99899.50
2024-03-02T10:16:49.911Z,99892.47
2024-03-02T10:19:20.524Z,99890.94
2024-03-02T10:21:48.965Z,99885.84
2024-03-02T10:24:15.674Z,99881.97
2024-03-02T10:26:43.142Z,99879.72
2024-03-02T10:29:11.254Z,99868.09
2024-03-02T10:31:38.970Z,99874.88
2024-03-02T10:34:05.932Z,99872.13
2024-03-02T10:36:33.171Z,99872.38
2024-03-02T10:39:01.145Z,99874.88
2024-03-02T10:41:30.488Z,99870.03
2024-03-02T10:44:00.530Z,99866.09
2024-03-02T10:46:30.181Z,99864.09
2024-03-02T10:48:56.903Z,99864.88
2024-03-02T10:51:23.528Z,99857.63
2024-03-02T10:53:50.269Z,99854.63
2024-03-02T10:56:28.500Z,99852.63
2024-03-02T10:58:56.828Z,99849.72
2024-03-02T11:01:23.962Z,99843.44
2024-03-02T11:03:50.653Z,99858.97
2024-03-02T11:06:17.689Z,99846.38
2024-03-02T11:08:45.693Z,99842.53
2024-03-02T11:11:17.068Z,99838.94
2024-03-02T11:13:50.332Z,99843.53
2024-03-02T11:16:17.745Z,99839.28
2024-03-02T11:18:44.792Z,99836.38
2024-03-02T11:21:11.304Z,99832.88
2024-03-02T11:23:37.983Z,99828.75
2024-03-02T11:26:20.266Z,99823.84
2024-03-02T11:28:48.470Z,99812.22
2024-03-02T11:31:15.035Z,99824.56
2024-03-02T11:33:41.648Z,99816.47
2024-03-02T11:36:12.345Z,99809.41
2024-03-02T11:38:39.533Z,99804.03
2024-03-02T11:41:10.818Z,99803.91
2024-03-02T11:43:40.938Z,99833.63
2024-03-02T11:46:09.343Z,99814.25
2024-03-02T11:48:36.947Z,99812.47
2024-03-02T11:51:03.971Z,99810.03
2024-03-02T11:53:35.507Z,99784.53
2024-03-02T11:56:03.170Z,99797.56
2024-03-02T11:58:30.387Z,99784.97
2024-03-02T12:00:57.710Z,99787.47
2024-03-02T12:03:27.037Z,99791.59
2024-03-02T12:05:54.499Z,99785.13
2024-03-02T12:08:22.369Z,99775.41
2024-03-02T12:10:59.319Z,99770.03
2024-03-02T12:13:35.088Z,99764.47
2024-03-02T12:16:01.644Z,99758.38
2024-03-02T12:18:29.594Z,99755.72
2024-03-02T12:20:59.680Z,99744.78
2024-03-02T12:23:26.550Z,99741.63
2024-03-02T12:25:53.337Z,99748.81
2024-03-02T12:28:20.421Z,99754.63
2024-03-02T12:30:48.911Z,99745.34
2024-03-02T12:33:15.655Z,99746.31
2024-03-02T12:35:43.854Z,99735.53
2024-03-02T12:38:11.943Z,99744.09
2024-03-02T12:40:38.605Z,99740.78
2024-03-02T12:43:06.401Z,99742.19
2024-03-02T12:45:33.077Z,99733.59
2024-03-02T12:48:01.125Z,99740.09
2024-03-02T12:50:27.772Z,99728.88
2024-03-02T12:52:56.166Z,99729.69
2024-03-02T12:55:24.271Z,99698.38
2024-03-02T12:57:51.871Z,99727.13
2024-03-02T13:00:19.990Z,99718.69
2024-03-02T13:02:46.931Z,99717.38
2024-03-02T13:05:14.272Z,99712.50
2024-03-02T13:07:41.994Z,99709.50
2024-03-02T13:10:10.410Z,99704.97
2024-03-02T13:12:38.295Z,99704.53
2024-03-02T13:15:06.682Z,99715.31
2024-03-02T13:17:37.870Z,99706.75
2024-03-02T13:20:09.605Z,99694.44
2024-03-02T13:22:36.856Z,99703.56
2024-03-02T13:25:07.825Z,99693.47
2024-03-02T13:27:36.169Z,99698.78
2024-03-02T13:30:03.996Z,99691.53
2024-03-02T13:32:30.702Z,99695.31
2024-03-02T13:34:57.309Z,99691.25
2024-03-02T13:37:24.068Z,99682.75
2024-03-02T13:39:50.935Z,99678.13
2024-03-02T13:42:17.820Z,99674.19
2024-03-02T13:44:50.900Z,99676.00
2024-03-02T13:47:17.496Z,99675.50
2024-03-02T13:49:50.417Z,99667.66
2024-03-02T13:52:19.737Z,99672.50
2024-03-02T13:54:47.193Z,99660.25
2024-03-02T13:57:14.365Z,99656.31
2024-03-02T13:59:41.116Z,99650.44
2024-03-02T14:02:10.096Z,99653.00
2024-03-02T14:04:37.857Z,99644.66
2024-03-02T14:07:05.312Z,99646.63
2024-03-02T14:09:31.974Z,99654.88
2024-03-02T14:11:58.716Z,99642.88
2024-03-02T14:14:25.593Z,99655.72
2024-03-02T14:16:53.315Z,99663.34
2024-03-02T14:19:22.428Z,99656.16
2024-03-02T14:21:49.304Z,99649.22
2024-03-02T14:24:15.932Z,99648.16
2024-03-02T14:26:42.654Z,99645.84
2024-03-02T14:29:09.419Z,99655.88
2024-03-02T14:31:35.995Z,99646.41
2024-03-02T14:34:02.641Z,99644.97
2024-03-02T14:36:30.746Z,99647.25
2024-03-02T14:38:57.646Z,99649.44
2024-03-02T14:41:25.770Z,99624.44
2024-03-02T14:43:52.516Z,99647.81
2024-03-02T14:46:19.380Z,99649.09
2024-03-02T14:48:46.899Z,99657.59
2024-03-02T14:51:14.465Z,99655.59
2024-03-02T14:53:42.778Z,99665.38
2024-03-02T14:56:09.532Z,99652.56
2024-03-02T14:58:37.502Z,99650.97
2024-03-02T15:01:04.769Z,99649.09
2024-03-02T15:03:31.509Z,99656.22
2024-03-02T15:05:58.201Z,99656.06
2024-03-02T15:08:24.849Z,99656.66
2024-03-02T15:10:53.226Z,99654.63
2024-03-02T15:13:19.950Z,99661.94
2024-03-02T15:15:47.239Z,99656.34
2024-03-02T15:18:13.898Z,99646.25
2024-03-02T15:20:41.920Z,99655.69
2024-03-02T15:23:08.631Z,99650.09
2024-03-02T15:25:35.195Z,99643.41
2024-03-02T15:28:03.260Z,99644.34
2024-03-02T15:30:29.974Z,99641.97
2024-03-02T15:32:56.573Z,99639.03
2024-03-02T15:35:23.238Z,99637.72
2024-03-02T15:37:54.856Z,99629.31
2024-03-02T15:40:21.850Z,99627.34
2024-03-02T15:42:48.560Z,99634.25
2024-03-02T15:45:16.532Z,99634.22
2024-03-02T15:47:43.375Z,99631.41
2024-03-02T15:50:10.726Z,99629.50
2024-03-02T15:52:37.527Z,99623.19
2024-03-02T15:55:07.344Z,99621.97
2024-03-02T15:57:34.485Z,99616.50
2024-03-02T16:00:02.915Z,99615.66
2024-03-02T16:02:30.904Z,99611.53
2024-03-02T16:04:57.456Z,99615.47
2024-03-02T16:07:24.022Z,99610.19
2024-03-02T16:09:50.624Z,99604.78
2024-03-02T16:12:17.799Z,99611.09
2024-03-02T16:14:44.151Z,99616.34
2024-03-02T16:17:10.944Z,99605.16
2024-03-02T16:19:41.927Z,99613.06
2024-03-02T16:22:12.013Z,99609.06
2024-03-02T16:24:38.809Z,99619.31
2024-03-02T16:27:05.542Z,99607.03
2024-03-02T16:29:32.548Z,99608.44
2024-03-02T16:31:59.748Z,99594.03
2024-03-02T16:34:26.293Z,99607.31
2024-03-02T16:36:54.393Z,99601.34
2024-03-02T16:39:20.937Z,99581.88
2024-03-02T16:41:48.025Z,99596.00
2024-03-02T16:44:15.158Z,99599.81
2024-03-02T16:46:43.809Z,99598.06
2024-03-02T16:49:10.416Z,99602.22
2024-03-02T16:51:40.067Z,99605.53
2024-03-02T16:54:08.102Z,99604.72
2024-03-02T16:56:39.135Z,99607.78
2024-03-02T16:59:05.708Z,99608.59
2024-03-02T17:01:33.049Z,99610.41
2024-03-02T17:04:00.628Z,99605.72
2024-03-02T17:06:27.337Z,99605.03
2024-03-02T17:08:53.917Z,99601.44
2024-03-02T17:11:21.959Z,99606.00
2024-03-02T17:13:48.561Z,99590.25
2024-03-02T17:16:16.612Z,99603.44
2024-03-02T17:18:43.231Z,99605.47
2024-03-02T17:21:09.810Z,99605.50
2024-03-02T17:23:36.489Z,99610.56
2024-03-02T17:26:03.178Z,99612.81
2024-03-02T17:28:33.057Z,99613.22
2024-03-02T17:31:00.881Z,99614.03
2024-03-02T17:33:27.587Z,99613.19
2024-03-02T17:35:54.521Z,99620.38
2024-03-02T17:38:21.359Z,99620.41
2024-03-02T17:40:48.010Z,99623.75
2024-03-02T17:43:14.761Z,99629.91
2024-03-02T17:45:43.201Z,99627.47
2024-03-02T17:48:10.282Z,99637.81
2024-03-02T17:50:36.969Z,99639.19
2024-03-02T17:53:03.726Z,99624.41
2024-03-02T17:55:30.335Z,99629.25
2024-03-02T17:57:57.225Z,99631.88
2024-03-02T18:00:23.763Z,99625.66
2024-03-02T18:02:51.689Z,99628.88
2024-03-02T18:05:18.475Z,99646.38
2024-03-02T18:07:45.074Z,99637.97
2024-03-02T18:10:11.849Z,99631.44
2024-03-02T18:12:39.511Z,99637.81
2024-03-02T18:15:10.064Z,99643.59
2024-03-02T18:17:36.817Z,99634.50
2024-03-02T18:20:05.926Z,99629.94
2024-03-02T18:22:33.326Z,99635.31
2024-03-02T18:25:00.741Z,99621.50
2024-03-02T18:27:27.623Z,99629.53
2024-03-02T18:29:55.062Z,99628.81
2024-03-02T18:32:21.958Z,99630.91
2024-03-02T18:34:48.682Z,99632.56
2024-03-02T18:37:17.930Z,99632.56
2024-03-02T18:39:45.010Z,99623.31
2024-03-02T18:42:11.551Z,99629.25
2024-03-02T18:44:38.206Z,99621.91
2024-03-02T18:47:04.874Z,99625.06
2024-03-02T18:49:31.454Z,99625.38
2024-03-02T18:51:58.107Z,99624.13
2024-03-02T18:54:26.075Z,99621.94
2024-03-02T18:56:52.735Z,99627.84
2024-03-02T18:59:19.488Z,99623.56
2024-03-02T19:01:46.237Z,99627.56
2024-03-02T19:04:13.135Z,99627.13
2024-03-02T19:06:39.724Z,99622.69
2024-03-02T19:09:06.376Z,99618.94
2024-03-02T19:11:34.320Z,99618.13
2024-03-02T19:14:00.934Z,99623.34
2024-03-02T19:16:27.709Z,99623.34
2024-03-02T19:18:54.275Z,99618.69
2024-03-02T19:21:20.901Z,99618.00
2024-03-02T19:23:47.532Z,99626.25
2024-03-02T19:26:19.797Z,99626.50
2024-03-02T19:28:49.440Z,99631.88
2024-03-02T19:31:16.157Z,99632.44
2024-03-02T19:33:42.807Z,99619.50
2024-03-02T19:36:09.576Z,99629.81
2024-03-02T19:38:36.464Z,99613.41
2024-03-02T19:41:03.226Z,99607.72
2024-03-02T19:43:29.789Z,99612.53
2024-03-02T19:45:57.738Z,99610.72
2024-03-02T19:48:24.286Z,99624.09
2024-03-02T19:50:51.440Z,99622.81
2024-03-02T19:53:18.103Z,99619.69
2024-03-02T19:55:45.550Z,99615.03
2024-03-02T19:58:12.430Z,99625.25
2024-03-02T20:00:39.370Z,99633.13
2024-03-02T20:03:07.452Z,99625.06
2024-03-02T20:05:33.975Z,99621.94
2024-03-02T20:08:00.569Z,99627.13
2024-03-02T20:10:27.182Z,99628.47
2024-03-02T20:12:53.908Z,99625.25
2024-03-02T20:15:20.893Z,99616.69
2024-03-02T20:17:47.650Z,99621.34
2024-03-02T20:20:17.048Z,99629.81
2024-03-02T20:22:43.975Z,99626.72
2024-03-02T20:25:14.649Z,99628.22
2024-03-02T20:27:43.127Z,99626.13
2024-03-02T20:30:11.364Z,99632.31
2024-03-02T20:32:38.030Z,99628.41
2024-03-02T20:35:05.123Z,99627.53
2024-03-02T20:37:33.109Z,99628.06
2024-03-02T20:40:00.292Z,99627.53
2024-03-02T20:42:27.107Z,99595.19
2024-03-02T20:44:53.868Z,99625.97
2024-03-02T20:47:20.447Z,99620.81
2024-03-02T20:49:47.019Z,99622.09
2024-03-02T20:52:13.806Z,99625.78
2024-03-02T20:54:41.864Z,99620.44
2024-03-02T20:57:08.497Z,99628.06
2024-03-02T20:59:35.465Z,99620.69
2024-03-02T21:02:03.435Z,99626.53
2024-03-02T21:04:30.061Z,99632.25
2024-03-02T21:06:57.049Z,99617.09
2024-03-02T21:09:23.524Z,99617.13
2024-03-02T21:11:51.618Z,99585.94
2024-03-02T21:14:18.255Z,99615.09
2024-03-02T21:16:44.796Z,99623.03
2024-03-02T21:19:12.856Z,99624.88
2024-03-02T21:21:42.185Z,99626.25
2024-03-02T21:24:08.818Z,99628.41
2024-03-02T21:26:38.746Z,99630.50
2024-03-02T21:29:06.711Z,99636.66
2024-03-02T21:31:33.364Z,99626.25
2024-03-02T21:34:00.001Z,99627.59
2024-03-02T21:36:26.910Z,99631.06
2024-03-02T21:38:53.513Z,99629.94
2024-03-02T21:41:20.139Z,99628.81
2024-03-02T21:43:46.729Z,99624.72
2024-03-02T21:46:14.773Z,99631.72
2024-03-02T21:48:41.679Z,99625.53
2024-03-02T21:51:08.509Z,99618.66
2024-03-02T21:53:36.896Z,99615.31
2024-03-02T21:56:03.799Z,99618.22
2024-03-02T21:58:30.388Z,99626.09
2024-03-02T22:00:57.076Z,99621.59
2024-03-02T22:03:24.983Z,99619.22
2024-03-02T22:05:52.058Z,99617.22
2024-03-02T22:08:18.907Z,99620.69
2024-03-02T22:10:45.503Z,99629.91
2024-03-02T22:13:12.150Z,99624.81
2024-03-02T22:15:38.778Z,99624.41
2024-03-02T22:18:05.683Z,99629.69
2024-03-02T22:20:33.602Z,99625.72
2024-03-02T22:23:00.119Z,99626.38
2024-03-02T22:25:26.679Z,99615.75
2024-03-02T22:27:56.969Z,99617.22
2024-03-02T22:30:23.890Z,99617.03
2024-03-02T22:32:50.665Z,99614.03
2024-03-02T22:35:17.417Z,99608.97
2024-03-02T22:37:45.395Z,99615.97
2024-03-02T22:40:12.386Z,99616.47
2024-03-02T22:42:39.037Z,99603.41
2024-03-02T22:45:06.480Z,99606.41
2024-03-02T22:47:33.194Z,99600.34
2024-03-02T22:49:59.792Z,99603.53
2024-03-02T22:52:26.477Z,99608.25
2024-03-02T22:54:54.420Z,99610.44
2024-03-02T22:57:21.121Z,99611.19
2024-03-02T22:59:49.064Z,99617.72
2024-03-02T23:02:17.942Z,99608.25
2024-03-02T23:04:44.617Z,99606.13
2024-03-02T23:07:11.270Z,99605.88
2024-03-02T23:09:38.151Z,99614.66
2024-03-02T23:12:06.665Z,99609.66
2024-03-02T23:14:33.241Z,99613.34
2024-03-02T23:16:59.872Z,99613.25
2024-03-02T23:19:26.511Z,99600.16
2024-03-02T23:21:53.191Z,99601.75
2024-03-02T23:24:19.918Z,99598.44
2024-03-02T23:26:46.475Z,99596.09
2024-03-02T23:29:14.611Z,99591.09
2024-03-02T23:31:41.157Z,99589.16
2024-03-02T23:34:10.087Z,99586.75
2024-03-02T23:36:38.294Z,99589.13
2024-03-02T23:39:05.295Z,99591.09
2024-03-02T23:41:31.936Z,99588.97
2024-03-02T23:44:00.534Z,99590.72
2024-03-02T23:46:28.974Z,99593.88
2024-03-02T23:48:55.620Z,99583.53
2024-03-02T23:51:22.303Z,99590.25
2024-03-02T23:53:48.847Z,99587.00
2024-03-02T23:56:15.510Z,99587.53
2024-03-02T23:58:42.220Z,99584.03
